createdAt,value
2023-08-16T00:00:40.081Z,22.53
2023-08-16T00:03:08.377Z,22.57
2023-08-16T00:05:37.424Z,22.66
2023-08-16T00:08:05.290Z,22.50
2023-08-16T00:10:32.817Z,22.46
2023-08-16T00:13:00.879Z,22.44
2023-08-16T00:15:28.639Z,22.36
2023-08-16T00:17:58.194Z,22.35
2023-08-16T00:20:27.867Z,22.33
2023-08-16T00:22:56.042Z,22.30
2023-08-16T00:25:24.161Z,22.24
2023-08-16T00:27:51.995Z,22.21
2023-08-16T00:30:23.779Z,22.27
2023-08-16T00:32:52.249Z,22.31
2023-08-16T00:35:21.691Z,22.32
2023-08-16T00:37:49.944Z,22.31
2023-08-16T00:40:17.355Z,22.19
2023-08-16T00:42:47.556Z,22.13
2023-08-16T00:45:15.330Z,22.00
2023-08-16T00:47:43.138Z,22.03
2023-08-16T00:50:10.819Z,22.13
2023-08-16T00:52:39.594Z,22.17
2023-08-16T00:55:08.249Z,22.20
2023-08-16T00:57:36.390Z,22.23
2023-08-16T01:00:06.331Z,22.28
2023-08-16T01:02:34.245Z,22.26
2023-08-16T01:05:01.901Z,22.18
2023-08-16T01:07:29.367Z,22.09
2023-08-16T01:09:57.262Z,22.07
2023-08-16T01:12:25.687Z,22.05
2023-08-16T01:15:04.921Z,22.07
2023-08-16T01:17:33.289Z,22.10
2023-08-16T01:20:03.570Z,22.06
2023-08-16T01:22:52.614Z,22.00
2023-08-16T01:25:26.965Z,21.85
2023-08-16T01:27:55.147Z,21.84
2023-08-16T01:30:23.751Z,21.83
2023-08-16T01:32:51.359Z,21.82
2023-08-16T01:35:19.045Z,21.87
2023-08-16T01:37:46.830Z,21.93
2023-08-16T01:40:14.716Z,21.97
2023-08-16T01:42:49.921Z,21.94
2023-08-16T01:45:18.962Z,21.99
2023-08-16T01:47:47.072Z,22.06
2023-08-16T01:50:14.908Z,22.05
2023-08-16T01:52:42.924Z,21.86
2023-08-16T01:55:10.570Z,21.73
2023-08-16T01:57:38.405Z,21.70
2023-08-16T02:00:07.076Z,21.65
2023-08-16T02:02:42.406Z,21.72
2023-08-16T02:05:10.654Z,21.69
2023-08-16T02:07:39.150Z,21.70
2023-08-16T02:10:06.614Z,21.65
2023-08-16T02:12:35.725Z,21.63
2023-08-16T02:15:04.805Z,21.68
2023-08-16T02:17:33.646Z,21.69
2023-08-16T02:20:00.993Z,21.64
2023-08-16T02:22:40.733Z,21.62
2023-08-16T02:25:12.373Z,21.61
2023-08-16T02:27:41.273Z,21.55
2023-08-16T02:30:09.693Z,21.59
2023-08-16T02:32:39.698Z,21.62
2023-08-16T02:35:07.118Z,21.33
2023-08-16T02:37:35.084Z,21.22
2023-08-16T02:40:04.985Z,21.53
2023-08-16T02:42:32.267Z,21.67
2023-08-16T02:45:00.044Z,21.65
2023-08-16T02:47:28.302Z,21.53
2023-08-16T02:49:55.564Z,21.44
2023-08-16T02:52:23.649Z,21.39
2023-08-16T02:54:52.240Z,21.45
2023-08-16T02:57:19.745Z,21.44
2023-08-16T02:59:47.798Z,21.38
2023-08-16T03:02:15.946Z,21.28
2023-08-16T03:04:44.463Z,20.89
2023-08-16T03:07:12.443Z,20.75
2023-08-16T03:09:40.653Z,20.99
2023-08-16T03:12:08.504Z,21.09
2023-08-16T03:14:36.321Z,20.92
2023-08-16T03:17:04.537Z,21.03
2023-08-16T03:19:32.639Z,21.08
2023-08-16T03:22:00.462Z,21.17
2023-08-16T03:24:29.087Z,20.98
2023-08-16T03:26:56.608Z,21.13
2023-08-16T03:29:24.857Z,21.22
2023-08-16T03:31:52.451Z,21.31
2023-08-16T03:34:20.710Z,21.28
2023-08-16T03:36:48.037Z,21.22
2023-08-16T03:39:15.645Z,21.16
2023-08-16T03:41:44.800Z,21.07
2023-08-16T03:44:12.328Z,21.01
2023-08-16T03:46:42.170Z,21.07
2023-08-16T03:49:09.471Z,21.17
2023-08-16T03:51:37.203Z,21.27
2023-08-16T03:54:04.945Z,21.31
2023-08-16T03:56:32.793Z,21.35
2023-08-16T03:59:00.165Z,21.36
2023-08-16T04:01:28.357Z,21.41
2023-08-16T04:03:57.219Z,21.52
2023-08-16T04:06:24.754Z,21.61
2023-08-16T04:08:52.540Z,21.68
2023-08-16T04:11:20.657Z,21.63
2023-08-16T04:13:48.486Z,21.50
2023-08-16T04:16:18.593Z,21.39
2023-08-16T04:18:46.990Z,21.24
2023-08-16T04:21:16.792Z,21.57
2023-08-16T04:23:44.111Z,21.76
2023-08-16T04:26:12.447Z,21.91
2023-08-16T04:28:40.911Z,22.07
2023-08-16T04:31:08.182Z,22.09
2023-08-16T04:33:37.417Z,22.10
2023-08-16T04:36:05.390Z,22.13
2023-08-16T04:38:33.860Z,22.24
2023-08-16T04:41:01.668Z,22.32
2023-08-16T04:43:30.747Z,22.36
2023-08-16T04:45:58.300Z,22.66
2023-08-16T04:48:26.161Z,22.72
2023-08-16T04:50:54.937Z,22.84
2023-08-16T04:53:23.220Z,22.90
2023-08-16T04:55:50.880Z,22.63
2023-08-16T04:58:18.827Z,22.67
2023-08-16T05:00:46.743Z,22.43
2023-08-16T05:03:14.860Z,22.46
2023-08-16T05:05:42.720Z,23.03
2023-08-16T05:08:10.800Z,23.45
2023-08-16T05:10:39.319Z,23.25
2023-08-16T05:13:07.510Z,23.60
2023-08-16T05:15:36.345Z,23.81
2023-08-16T05:18:04.714Z,23.93
2023-08-16T05:20:32.626Z,23.61
2023-08-16T05:22:59.900Z,23.78
2023-08-16T05:25:27.497Z,24.04
2023-08-16T05:27:59.768Z,24.19
2023-08-16T05:30:27.842Z,24.28
2023-08-16T05:32:56.075Z,24.36
2023-08-16T05:35:24.089Z,24.33
2023-08-16T05:37:51.916Z,24.41
2023-08-16T05:40:20.390Z,24.50
2023-08-16T05:42:48.722Z,24.46
2023-08-16T05:45:17.282Z,24.57
2023-08-16T05:47:45.430Z,24.46
2023-08-16T05:50:12.764Z,24.62
2023-08-16T05:52:40.032Z,24.91
2023-08-16T05:55:09.288Z,25.12
2023-08-16T05:57:36.794Z,25.71
2023-08-16T06:00:05.053Z,27.60
2023-08-16T06:02:39.973Z,29.39
2023-08-16T06:05:07.852Z,29.51
2023-08-16T06:07:35.206Z,29.48
2023-08-16T06:10:06.327Z,29.58
2023-08-16T06:12:34.592Z,29.20
2023-08-16T06:15:04.284Z,29.09
2023-08-16T06:17:31.648Z,27.89
2023-08-16T06:20:02.176Z,27.80
2023-08-16T06:22:30.609Z,27.80
2023-08-16T06:24:57.918Z,27.80
2023-08-16T06:27:26.921Z,28.05
2023-08-16T06:29:54.573Z,28.57
2023-08-16T06:32:22.591Z,29.07
2023-08-16T06:34:50.138Z,29.09
2023-08-16T06:37:17.410Z,27.92
2023-08-16T06:39:44.715Z,28.06
2023-08-16T06:42:14.842Z,27.53
2023-08-16T06:44:45.949Z,27.09
2023-08-16T06:47:13.616Z,26.23
2023-08-16T06:49:42.049Z,26.25
2023-08-16T06:52:09.803Z,25.36
2023-08-16T06:54:37.648Z,26.23
2023-08-16T06:57:10.345Z,26.31
2023-08-16T06:59:49.113Z,25.08
2023-08-16T07:02:16.969Z,24.84
2023-08-16T07:04:46.713Z,24.97
2023-08-16T07:07:14.528Z,25.00
2023-08-16T07:09:43.464Z,24.66
2023-08-16T07:12:12.905Z,24.96
2023-08-16T07:14:41.178Z,25.16
2023-08-16T07:17:10.366Z,25.34
2023-08-16T07:19:38.177Z,25.33
2023-08-16T07:22:06.586Z,25.40
2023-08-16T07:24:35.138Z,25.71
2023-08-16T07:27:04.379Z,25.70
2023-08-16T07:29:31.685Z,25.12
2023-08-16T07:31:59.098Z,25.03
2023-08-16T07:34:28.878Z,25.31
2023-08-16T07:36:56.260Z,24.97
2023-08-16T07:39:25.773Z,25.56
2023-08-16T07:41:57.743Z,25.94
2023-08-16T07:44:29.234Z,25.89
2023-08-16T07:46:56.865Z,25.64
2023-08-16T07:49:24.147Z,25.70
2023-08-16T07:51:51.480Z,25.81
2023-08-16T07:54:19.133Z,25.94
2023-08-16T07:56:46.811Z,26.06
2023-08-16T07:59:15.470Z,26.50
2023-08-16T08:01:46.650Z,26.74
2023-08-16T08:04:14.389Z,26.81
2023-08-16T08:06:45.838Z,26.85
2023-08-16T08:09:13.495Z,26.64
2023-08-16T08:11:41.120Z,26.50
2023-08-16T08:14:09.189Z,26.81
2023-08-16T08:16:37.751Z,27.14
2023-08-16T08:19:06.629Z,27.09
2023-08-16T08:21:33.914Z,26.63
2023-08-16T08:24:02.612Z,26.45
2023-08-16T08:26:30.670Z,26.81
2023-08-16T08:28:59.615Z,26.71
2023-08-16T08:31:26.994Z,26.84
2023-08-16T08:33:54.580Z,27.15
2023-08-16T08:36:22.669Z,27.00
2023-08-16T08:38:50.430Z,27.25
2023-08-16T08:41:30.909Z,27.14
2023-08-16T08:44:06.268Z,27.70
2023-08-16T08:46:33.891Z,27.31
2023-08-16T08:52:25.593Z,27.32
2023-08-16T08:54:54.578Z,27.15
2023-08-16T08:57:22.845Z,26.78
2023-08-16T08:59:51.017Z,26.90
2023-08-16T09:02:19.340Z,26.81
2023-08-16T09:04:48.910Z,26.62
2023-08-16T09:07:16.886Z,27.01
2023-08-16T09:09:49.622Z,27.31
2023-08-16T09:12:20.304Z,27.18
2023-08-16T09:14:49.084Z,27.95
2023-08-16T09:17:17.089Z,28.73
2023-08-16T09:19:46.244Z,29.84
2023-08-16T09:22:13.884Z,30.03
2023-08-16T09:24:43.805Z,29.96
2023-08-16T09:27:12.107Z,30.37
2023-08-16T09:29:43.814Z,31.19
2023-08-16T09:32:22.105Z,30.53
2023-08-16T09:34:55.812Z,31.14
2023-08-16T09:37:25.964Z,31.14
2023-08-16T09:39:58.406Z,31.26
2023-08-16T09:42:36.133Z,30.97
2023-08-16T09:45:05.482Z,31.60
2023-08-16T09:50:07.706Z,30.47
2023-08-16T09:52:36.540Z,29.06
2023-08-16T09:55:05.176Z,30.01
2023-08-16T09:57:33.578Z,31.48
2023-08-16T10:00:01.267Z,31.60
2023-08-16T10:05:02.772Z,31.28
2023-08-16T10:07:30.330Z,31.82
2023-08-16T10:09:58.408Z,31.82
2023-08-16T10:12:27.670Z,31.56
2023-08-16T10:14:57.817Z,31.19
2023-08-16T10:20:48.085Z,29.54
2023-08-16T10:23:18.104Z,30.04
2023-08-16T10:25:46.635Z,29.90
2023-08-16T10:28:19.772Z,30.48
2023-08-16T10:33:34.369Z,31.24
2023-08-16T10:36:02.404Z,31.27
2023-08-16T10:38:39.799Z,31.75
2023-08-16T10:41:15.774Z,31.76
2023-08-16T10:43:57.158Z,32.07
2023-08-16T10:46:32.525Z,32.12
2023-08-16T10:49:02.568Z,32.04
2023-08-16T10:51:31.674Z,32.18
2023-08-16T10:54:00.590Z,31.91
2023-08-16T10:56:45.824Z,31.80
2023-08-16T10:59:14.230Z,31.36
2023-08-16T11:01:45.857Z,30.68
2023-08-16T11:04:14.883Z,30.95
2023-08-16T11:06:55.685Z,30.74
2023-08-16T11:09:31.816Z,31.20
2023-08-16T11:12:08.092Z,31.18
2023-08-16T11:14:37.158Z,30.81
2023-08-16T11:17:05.420Z,31.25
2023-08-16T11:19:35.188Z,31.24
2023-08-16T11:22:06.757Z,31.10
2023-08-16T11:24:35.727Z,31.18
2023-08-16T11:27:04.857Z,31.13
2023-08-16T11:29:35.369Z,30.66
2023-08-16T11:32:03.776Z,31.38
2023-08-16T11:34:34.915Z,31.63
2023-08-16T11:37:02.617Z,30.70
2023-08-16T11:39:31.387Z,31.24
2023-08-16T11:41:58.869Z,31.32
2023-08-16T11:44:26.586Z,31.43
2023-08-16T11:46:55.872Z,31.09
2023-08-16T11:49:23.359Z,31.31
2023-08-16T11:51:52.314Z,31.60
2023-08-16T11:54:22.897Z,31.89
2023-08-16T11:56:52.965Z,31.74
2023-08-16T11:59:30.375Z,32.00
2023-08-16T12:02:06.456Z,32.13
2023-08-16T12:04:34.661Z,32.14
2023-08-16T12:07:02.365Z,31.92
2023-08-16T12:09:31.751Z,31.63
2023-08-16T12:12:02.530Z,31.55
2023-08-16T12:14:30.255Z,31.73
2023-08-16T12:16:58.124Z,31.38
2023-08-16T12:19:25.794Z,31.25
2023-08-16T12:21:54.482Z,31.11
2023-08-16T12:24:21.880Z,31.01
2023-08-16T12:26:50.377Z,31.00
2023-08-16T12:29:18.612Z,31.01
2023-08-16T12:31:48.182Z,30.97
2023-08-16T12:34:15.942Z,31.10
2023-08-16T12:36:43.420Z,30.78
2023-08-16T12:39:11.014Z,31.02
2023-08-16T12:41:39.233Z,31.16
2023-08-16T12:44:07.173Z,31.32
2023-08-16T12:46:34.978Z,31.23
2023-08-16T12:49:03.282Z,31.23
2023-08-16T12:51:33.767Z,30.88
2023-08-16T12:54:01.082Z,30.92
2023-08-16T12:56:29.798Z,30.96
2023-08-16T12:58:57.679Z,31.08
2023-08-16T13:10:55.766Z,30.68
2023-08-16T13:16:08.869Z,31.18
2023-08-16T13:23:55.201Z,31.12
2023-08-16T13:26:39.045Z,30.93
2023-08-16T13:29:10.953Z,31.26
2023-08-16T13:32:01.390Z,30.94
2023-08-16T13:39:43.062Z,30.74
2023-08-16T13:45:16.130Z,31.18
2023-08-16T13:47:41.816Z,31.08
2023-08-16T13:50:13.997Z,31.06
2023-08-16T13:52:48.406Z,31.01
2023-08-16T13:55:19.701Z,30.90
2023-08-16T13:58:03.086Z,30.75
2023-08-16T14:00:31.234Z,30.76
2023-08-16T14:03:01.476Z,30.91
2023-08-16T14:05:28.771Z,31.04
2023-08-16T14:07:56.219Z,30.88
2023-08-16T14:10:24.011Z,31.24
2023-08-16T14:12:53.773Z,30.44
2023-08-16T14:15:21.219Z,30.20
2023-08-16T14:17:48.920Z,30.42
2023-08-16T14:20:16.287Z,30.59
2023-08-16T14:22:44.085Z,30.89
2023-08-16T14:25:11.886Z,30.90
2023-08-16T14:27:39.167Z,30.66
2023-08-16T14:30:07.783Z,31.02
2023-08-16T14:32:35.698Z,31.02
2023-08-16T14:35:03.956Z,31.25
2023-08-16T14:37:32.048Z,31.24
2023-08-16T14:40:00.500Z,31.35
2023-08-16T14:42:28.415Z,31.49
2023-08-16T14:44:56.739Z,31.44
2023-08-16T14:47:24.551Z,30.91
2023-08-16T14:49:53.983Z,30.49
2023-08-16T14:52:21.498Z,30.78
2023-08-16T14:54:50.959Z,30.63
2023-08-16T14:57:19.594Z,30.93
2023-08-16T14:59:48.083Z,30.27
2023-08-16T15:02:15.674Z,30.25
2023-08-16T15:04:43.337Z,30.28
2023-08-16T15:07:11.527Z,30.30
2023-08-16T15:09:40.442Z,30.02
2023-08-16T15:12:09.711Z,30.05
2023-08-16T15:14:37.723Z,30.39
2023-08-16T15:17:05.424Z,30.36
2023-08-16T15:19:36.617Z,30.82
2023-08-16T15:22:04.416Z,30.85
2023-08-16T15:24:34.657Z,30.76
2023-08-16T15:27:02.445Z,30.50
2023-08-16T15:29:30.119Z,30.36
2023-08-16T15:31:57.952Z,30.40
2023-08-16T15:34:27.246Z,30.31
2023-08-16T15:36:54.709Z,30.67
2023-08-16T15:39:24.004Z,30.60
2023-08-16T15:41:52.132Z,30.56
2023-08-16T15:44:20.003Z,30.64
2023-08-16T15:46:47.664Z,30.28
2023-08-16T15:49:15.056Z,30.52
2023-08-16T15:51:42.380Z,30.56
2023-08-16T15:57:03.151Z,30.51
2023-08-16T15:59:42.665Z,30.33
2023-08-16T16:02:17.175Z,30.55
2023-08-16T16:04:46.591Z,30.86
2023-08-16T16:07:16.340Z,30.74
2023-08-16T16:09:45.505Z,30.84
2023-08-16T16:12:13.787Z,30.81
2023-08-16T16:14:45.007Z,31.07
2023-08-16T16:17:20.630Z,30.86
2023-08-16T16:19:48.715Z,30.74
2023-08-16T16:22:17.951Z,30.14
2023-08-16T16:24:46.446Z,30.22
2023-08-16T16:27:17.184Z,30.59
2023-08-16T16:29:45.609Z,30.76
2023-08-16T16:32:17.040Z,30.60
2023-08-16T16:34:47.713Z,30.23
2023-08-16T16:37:16.834Z,30.22
2023-08-16T16:39:46.545Z,30.28
2023-08-16T16:42:14.791Z,30.42
2023-08-16T16:44:42.978Z,30.53
2023-08-16T16:47:11.571Z,30.30
2023-08-16T16:49:40.132Z,30.29
2023-08-16T16:52:08.801Z,29.67
2023-08-16T16:54:38.427Z,29.79
2023-08-16T16:57:10.553Z,30.06
2023-08-16T16:59:41.626Z,30.14
2023-08-16T17:02:11.490Z,30.16
2023-08-16T17:04:39.370Z,30.10
2023-08-16T17:07:09.606Z,30.02
2023-08-16T17:09:40.503Z,30.10
2023-08-16T17:12:09.478Z,29.98
2023-08-16T17:14:38.724Z,29.74
2023-08-16T17:17:07.675Z,29.81
2023-08-16T17:19:36.435Z,29.80
2023-08-16T17:22:05.001Z,29.65
2023-08-16T17:24:37.198Z,29.48
2023-08-16T17:27:08.691Z,29.28
2023-08-16T17:29:44.242Z,29.47
2023-08-16T17:32:13.651Z,29.39
2023-08-16T17:34:42.834Z,29.06
2023-08-16T17:37:11.495Z,28.82
2023-08-16T17:39:39.573Z,28.67
2023-08-16T17:42:08.897Z,28.48
2023-08-16T17:44:39.350Z,28.42
2023-08-16T17:47:07.814Z,28.60
2023-08-16T17:52:59.906Z,28.77
2023-08-16T17:55:28.614Z,28.70
2023-08-16T17:57:56.820Z,28.57
2023-08-16T18:00:26.707Z,28.49
2023-08-16T18:02:56.807Z,28.49
2023-08-16T18:05:30.861Z,28.26
2023-08-16T18:07:59.420Z,28.29
2023-08-16T18:10:28.173Z,28.48
2023-08-16T18:12:56.137Z,28.09
2023-08-16T18:15:24.242Z,26.71
2023-08-16T18:17:57.557Z,26.39
2023-08-16T18:20:25.583Z,26.01
2023-08-16T18:22:57.309Z,25.66
2023-08-16T18:25:31.161Z,25.31
2023-08-16T18:27:59.427Z,25.09
2023-08-16T18:30:28.443Z,24.88
2023-08-16T18:32:58.626Z,24.78
2023-08-16T18:35:30.193Z,24.42
2023-08-16T18:37:59.258Z,24.38
2023-08-16T18:40:29.025Z,24.57
2023-08-16T18:42:57.254Z,24.04
2023-08-16T18:45:27.776Z,24.23
2023-08-16T18:47:56.881Z,24.46
2023-08-16T18:50:26.197Z,24.02
2023-08-16T18:52:58.082Z,23.90
2023-08-16T18:55:27.432Z,23.14
2023-08-16T18:57:56.235Z,22.52
2023-08-16T19:00:25.353Z,22.36
2023-08-16T19:02:55.027Z,22.41
2023-08-16T19:05:23.344Z,22.29
2023-08-16T19:07:52.512Z,22.31
2023-08-16T19:10:24.934Z,21.73
2023-08-16T19:12:53.918Z,21.57
2023-08-16T19:15:21.922Z,21.48
2023-08-16T19:17:52.236Z,21.41
2023-08-16T19:20:20.667Z,21.36
2023-08-16T19:22:49.438Z,21.45
2023-08-16T19:25:17.921Z,21.52
2023-08-16T19:27:46.888Z,21.48
2023-08-16T19:30:16.404Z,21.53
2023-08-16T19:32:49.037Z,21.54
2023-08-16T19:35:21.599Z,21.43
2023-08-16T19:37:50.481Z,21.42
2023-08-16T19:40:20.354Z,21.59
2023-08-16T19:42:48.565Z,21.57
2023-08-16T19:45:17.482Z,21.67
2023-08-16T19:47:46.048Z,21.83
2023-08-16T19:50:21.360Z,21.80
2023-08-16T19:52:52.199Z,21.81
2023-08-16T19:55:21.327Z,21.72
2023-08-16T19:57:50.708Z,21.71
2023-08-16T20:00:20.547Z,21.77
2023-08-16T20:02:50.531Z,21.83
2023-08-16T20:05:18.738Z,21.82
2023-08-16T20:07:50.539Z,21.95
2023-08-16T20:10:19.276Z,22.02
2023-08-16T20:12:48.203Z,22.05
2023-08-16T20:15:17.618Z,21.97
2023-08-16T20:17:46.786Z,21.99
2023-08-16T20:20:15.591Z,22.07
2023-08-16T20:22:48.564Z,22.10
2023-08-16T20:25:17.698Z,22.25
2023-08-16T20:27:47.606Z,22.51
2023-08-16T20:30:15.942Z,22.53
2023-08-16T20:32:46.526Z,22.33
2023-08-16T20:35:17.283Z,22.13
2023-08-16T20:37:49.025Z,21.94
2023-08-16T20:40:17.582Z,21.91
2023-08-16T20:42:47.362Z,21.80
2023-08-16T20:45:17.106Z,21.87
2023-08-16T20:47:45.701Z,21.85
2023-08-16T20:50:15.437Z,21.79
2023-08-16T20:52:45.280Z,21.77
2023-08-16T20:55:13.473Z,21.78
2023-08-16T20:57:41.906Z,21.92
2023-08-16T21:00:11.392Z,21.96
2023-08-16T21:02:39.403Z,21.97
2023-08-16T21:05:08.002Z,21.93
2023-08-16T21:07:36.225Z,21.84
2023-08-16T21:10:04.487Z,21.80
2023-08-16T21:12:32.316Z,21.82
2023-08-16T21:15:00.462Z,21.68
2023-08-16T21:17:30.708Z,21.71
2023-08-16T21:19:58.862Z,21.74
2023-08-16T21:22:27.400Z,21.58
2023-08-16T21:24:55.215Z,21.31
2023-08-16T21:27:23.588Z,21.43
2023-08-16T21:29:51.950Z,21.57
2023-08-16T21:32:19.790Z,21.65
2023-08-16T21:34:47.589Z,21.49
2023-08-16T21:37:15.821Z,21.52
2023-08-16T21:39:43.591Z,21.26
2023-08-16T21:42:11.408Z,21.32
2023-08-16T21:44:40.849Z,21.49
2023-08-16T21:47:10.299Z,21.61
2023-08-16T21:49:38.086Z,21.51
2023-08-16T21:52:06.206Z,21.41
2023-08-16T21:54:34.061Z,21.34
2023-08-16T21:57:01.371Z,21.46
2023-08-16T21:59:30.517Z,21.55
2023-08-16T22:01:59.227Z,21.60
2023-08-16T22:04:28.014Z,21.53
2023-08-16T22:06:55.845Z,21.51
2023-08-16T22:12:47.364Z,21.37
2023-08-16T22:18:38.565Z,20.99
2023-08-16T22:21:08.137Z,20.96
2023-08-16T22:23:38.454Z,20.92
2023-08-16T22:26:07.882Z,20.97
2023-08-16T22:28:36.222Z,20.95
2023-08-16T22:31:04.123Z,20.93
2023-08-16T22:33:32.247Z,21.06
2023-08-16T22:36:00.018Z,21.09
2023-08-16T22:38:28.267Z,21.04
2023-08-16T22:40:56.821Z,21.03
2023-08-16T22:43:24.672Z,21.08
2023-08-16T22:45:52.584Z,21.01
2023-08-16T22:48:20.730Z,21.06
2023-08-16T22:50:50.421Z,21.08
2023-08-16T22:53:18.551Z,21.11
2023-08-16T22:55:50.189Z,21.16
2023-08-16T22:58:18.104Z,21.21
2023-08-16T23:00:46.500Z,21.27
2023-08-16T23:03:14.317Z,21.29
2023-08-16T23:05:42.212Z,21.28
2023-08-16T23:08:10.493Z,21.28
2023-08-16T23:10:42.464Z,21.37
2023-08-16T23:13:10.567Z,21.43
2023-08-16T23:15:38.797Z,21.46
2023-08-16T23:18:06.832Z,21.48
2023-08-16T23:20:36.091Z,21.27
2023-08-16T23:23:04.325Z,21.37
2023-08-16T23:25:32.403Z,21.44
2023-08-16T23:28:00.552Z,21.48
2023-08-16T23:30:28.340Z,21.48
2023-08-16T23:32:57.470Z,21.49
2023-08-16T23:35:26.585Z,21.48
2023-08-16T23:37:54.447Z,21.50
2023-08-16T23:40:22.312Z,21.55
2023-08-16T23:42:53.413Z,21.53
2023-08-16T23:45:21.239Z,21.46
2023-08-16T23:47:49.998Z,21.42
2023-08-16T23:50:18.344Z,21.34
2023-08-16T23:52:47.948Z,21.29
2023-08-16T23:55:15.879Z,21.29
2023-08-16T23:57:44.007Z,21.27
